Main page
Satellite images 10-day forecastsClimateMarine weather Cyclones Lightning AirportsFAQ Newsletter About
Weather : Europe Africa North America South America Asia Australia-Oceania Others
Languages Contact

Christchurch, New Zealand

Christchurch International Airport

latitude: 43-29S, longitude: 172-33E, elevation: 38 m


METAR: NZCH 031000Z AUTO 34004KT 290V010 9999 NCD 13/06 Q1003 NOSIG
TAF: NZCH 030518Z 0306/0406 27015G25KT CAVOK BECMG 0307/0309 36008KT BECMG 0400/0402 33015G25KT

Time: 22:35 (10:35 UTC)

Current weather observation

The report was made 35 minutes ago, at 10:00 UTC
Wind 4 kt from the North/Northwest, varying between West/Northwest and North
Temperature 13°C
Humidity 62%
Pressure 1003 hPa
Visibility 10 km or more

Change units

Forecast

The report was made 5 hours and 17 minutes ago, at 05:18 UTC
Forecast valid from 03 at 06 UTC to 04 at 06 UTC
Wind 15 kt from the West with gusts up to 25 kt
Visibility 10 km or more
no clouds below 1500 m and no cumulonimbus
Becoming
from 03 at 07 UTC to 03 at 09 UTC
Wind 8 kt from the North
Becoming
from 04 at 00 UTC to 04 at 02 UTC
Wind 15 kt from the North/Northwest with gusts up to 25 kt
The information on this site is subject to a disclaimer
Weather : Europe Africa North America South America Asia Australia-Oceania Others
Satellite images 10-day forecastsClimateMarine weather Cyclones Lightning AirportsFAQ Languages Contact Newsletter About